Time;durP1;ratioP1;P1;durP2;ratioP2;P2;SDS_P1;SDS_P2;PMS_P1;PMS_P2;Temp;Humidity;BMP_temperature;BMP_pressure;BME280_temperature;BME280_humidity;BME280_pressure;Samples;Min_cycle;Max_cycle;Signal;HPM_P1;HPM_P2
2023/09/02 00:01:33;;;;;;;8.17;1.83;;;;;;;;;;5108910;28;20040;-64
2023/09/02 00:04:02;;;;;;;2.77;1.90;;;;;;;;;;5108041;28;20023;-64
2023/09/02 00:06:28;;;;;;;2.10;1.63;;;;;;;;;;5108362;28;20535;-64
2023/09/02 00:08:55;;;;;;;3.37;1.43;;;;;;;;;;5107953;28;20023;-64
2023/09/02 00:11:22;;;;;;;2.03;1.40;;;;;;;;;;5111301;28;20031;-64
2023/09/02 00:13:48;;;;;;;2.20;1.63;;;;;;;;;;5113169;28;20560;-65
2023/09/02 00:16:16;;;;;;;3.37;1.57;;;;;;;;;;5112869;28;20027;-65
2023/09/02 00:18:46;;;;;;;2.50;1.37;;;;;;;;;;5113108;28;20055;-64
2023/09/02 00:21:13;;;;;;;8.90;1.70;;;;;;;;;;5113143;28;20462;-65
2023/09/02 00:23:46;;;;;;;2.47;1.43;;;;;;;;;;5109418;28;20028;-64
2023/09/02 00:26:13;;;;;;;3.37;2.13;;;;;;;;;;5106408;28;20361;-64
2023/09/02 00:28:39;;;;;;;2.70;1.60;;;;;;;;;;5107782;28;20024;-64
2023/09/02 00:31:06;;;;;;;3.23;1.87;;;;;;;;;;5107467;28;20031;-65
2023/09/02 00:33:33;;;;;;;15.00;1.60;;;;;;;;;;5110761;28;20028;-64
2023/09/02 00:36:00;;;;;;;3.33;1.60;;;;;;;;;;5112879;28;20127;-65
2023/09/02 00:38:26;;;;;;;3.57;1.80;;;;;;;;;;5113010;28;20150;-64
2023/09/02 00:41:00;;;;;;;1.47;1.20;;;;;;;;;;5112941;28;20521;-64
2023/09/02 00:43:27;;;;;;;2.53;1.57;;;;;;;;;;5112771;28;20024;-64
2023/09/02 00:45:54;;;;;;;2.23;1.53;;;;;;;;;;5108693;28;20417;-64
2023/09/02 00:48:21;;;;;;;3.13;1.70;;;;;;;;;;5107499;28;20077;-64
2023/09/02 00:50:47;;;;;;;2.53;1.80;;;;;;;;;;5107263;28;20118;-65
2023/09/02 00:53:14;;;;;;;4.17;1.57;;;;;;;;;;5107458;28;20024;-64
2023/09/02 00:55:40;;;;;;;2.90;1.67;;;;;;;;;;5110500;28;20026;-65
2023/09/02 00:58:07;;;;;;;9.03;1.93;;;;;;;;;;5112663;28;20020;-65
2023/09/02 01:00:34;;;;;;;3.23;1.77;;;;;;;;;;5111146;28;20392;-65
2023/09/02 01:03:01;;;;;;;2.47;1.50;;;;;;;;;;5111959;28;20046;-65
2023/09/02 01:05:29;;;;;;;3.37;1.30;;;;;;;;;;5112435;28;20031;-65
2023/09/02 01:07:59;;;;;;;2.57;1.57;;;;;;;;;;5107623;28;20032;-65
2023/09/02 01:10:26;;;;;;;4.03;2.40;;;;;;;;;;5106995;28;20031;-64
2023/09/02 01:12:53;;;;;;;2.80;1.83;;;;;;;;;;5105948;28;20098;-64
2023/09/02 01:15:19;;;;;;;2.03;1.60;;;;;;;;;;5107331;28;20493;-64
2023/09/02 01:17:46;;;;;;;2.33;1.47;;;;;;;;;;5109551;28;20363;-64
2023/09/02 01:20:14;;;;;;;2.70;1.93;;;;;;;;;;5112462;28;20104;-64
2023/09/02 01:22:53;;;;;;;6.70;3.20;;;;;;;;;;5112591;28;20058;-64
2023/09/02 01:25:32;;;;;;;5.23;2.80;;;;;;;;;;5112265;28;20076;-64
2023/09/02 01:28:05;;;;;;;8.90;2.67;;;;;;;;;;5112158;28;20099;-64
2023/09/02 01:30:35;;;;;;;4.47;2.30;;;;;;;;;;5107988;28;20028;-64
2023/09/02 01:33:05;;;;;;;2.57;1.73;;;;;;;;;;5107010;28;20028;-64
2023/09/02 01:35:34;;;;;;;2.70;1.87;;;;;;;;;;5107206;28;20023;-64
2023/09/02 01:38:02;;;;;;;5.10;2.83;;;;;;;;;;5108952;28;20028;-64
2023/09/02 01:40:29;;;;;;;5.63;2.33;;;;;;;;;;5114721;28;20512;-64
2023/09/02 01:42:59;;;;;;;7.67;2.70;;;;;;;;;;5116063;28;20032;-63
2023/09/02 01:45:27;;;;;;;4.13;2.50;;;;;;;;;;5116017;28;20030;-64
2023/09/02 01:47:54;;;;;;;2.80;1.67;;;;;;;;;;5116134;28;20480;-64
2023/09/02 01:50:22;;;;;;;3.40;1.80;;;;;;;;;;5116165;28;20469;-64
2023/09/02 01:52:49;;;;;;;4.97;2.37;;;;;;;;;;5111538;28;20035;-64
2023/09/02 01:55:16;;;;;;;6.97;1.93;;;;;;;;;;5110692;28;20666;-64
2023/09/02 01:57:43;;;;;;;2.23;1.80;;;;;;;;;;5110306;28;20035;-64
2023/09/02 02:00:11;;;;;;;2.33;1.77;;;;;;;;;;5110549;28;20358;-64
2023/09/02 02:02:42;;;;;;;2.70;1.80;;;;;;;;;;5114434;28;20090;-64
2023/09/02 02:05:10;;;;;;;5.07;3.47;;;;;;;;;;5115722;28;20039;-64
2023/09/02 02:07:39;;;;;;;2.37;1.87;;;;;;;;;;5115759;28;20016;-64
2023/09/02 02:10:08;;;;;;;5.13;3.33;;;;;;;;;;5115297;28;20032;-64
2023/09/02 02:12:38;;;;;;;3.70;2.57;;;;;;;;;;5115469;28;20537;-63
2023/09/02 02:15:05;;;;;;;4.43;2.43;;;;;;;;;;5110696;28;20020;-65
2023/09/02 02:17:32;;;;;;;4.73;2.47;;;;;;;;;;5110259;28;20103;-64
2023/09/02 02:19:58;;;;;;;4.07;2.47;;;;;;;;;;5110285;28;20019;-64
2023/09/02 02:22:25;;;;;;;4.17;2.57;;;;;;;;;;5110195;28;20511;-64
2023/09/02 02:24:52;;;;;;;4.77;2.00;;;;;;;;;;5113781;28;20024;-64
2023/09/02 02:27:18;;;;;;;3.13;2.33;;;;;;;;;;5114944;28;20024;-64
2023/09/02 02:29:45;;;;;;;2.80;2.17;;;;;;;;;;5115248;28;20031;-64
2023/09/02 02:32:11;;;;;;;5.10;2.47;;;;;;;;;;5115087;28;20031;-64
2023/09/02 02:34:38;;;;;;;4.00;2.60;;;;;;;;;;5115280;28;20026;-64
2023/09/02 02:37:05;;;;;;;2.93;2.13;;;;;;;;;;5110904;28;20084;-64
2023/09/02 02:39:32;;;;;;;2.57;1.90;;;;;;;;;;5109958;28;20423;-64
2023/09/02 02:41:58;;;;;;;11.83;1.93;;;;;;;;;;5109496;28;20040;-64
2023/09/02 02:44:25;;;;;;;3.73;2.20;;;;;;;;;;5109626;28;20035;-66
2023/09/02 02:46:52;;;;;;;3.47;2.03;;;;;;;;;;5113094;28;20552;-64
2023/09/02 02:49:18;;;;;;;2.93;2.13;;;;;;;;;;5114660;28;20023;-64
2023/09/02 02:51:45;;;;;;;3.87;2.47;;;;;;;;;;5114271;28;20036;-64
2023/09/02 02:54:12;;;;;;;6.07;2.80;;;;;;;;;;5114803;28;20049;-64
2023/09/02 02:56:38;;;;;;;7.60;2.37;;;;;;;;;;5111575;28;20020;-64
2023/09/02 02:59:07;;;;;;;3.23;2.03;;;;;;;;;;5090373;28;20036;-64
2023/09/02 03:01:34;;;;;;;3.13;2.23;;;;;;;;;;5096161;28;20504;-64
2023/09/02 03:04:00;;;;;;;4.33;2.40;;;;;;;;;;5109296;28;20031;-64
2023/09/02 03:06:27;;;;;;;3.80;2.50;;;;;;;;;;5109394;28;20103;-64
2023/09/02 03:08:54;;;;;;;6.93;3.50;;;;;;;;;;5112395;28;20020;-64
2023/09/02 03:11:20;;;;;;;5.40;2.83;;;;;;;;;;5109914;28;20125;-64
2023/09/02 03:13:47;;;;;;;6.03;3.33;;;;;;;;;;5093995;28;20044;-64
2023/09/02 03:16:15;;;;;;;5.43;3.60;;;;;;;;;;5093709;28;20016;-64
2023/09/02 03:18:41;;;;;;;8.57;3.43;;;;;;;;;;5094116;28;20093;-64
2023/09/02 03:21:08;;;;;;;4.10;2.70;;;;;;;;;;5092018;28;20570;-65
2023/09/02 03:23:35;;;;;;;4.73;2.40;;;;;;;;;;5108997;28;20024;-64
2023/09/02 03:26:22;;;;;;;4.20;2.77;;;;;;;;;;5109108;28;20019;-64
2023/09/02 03:28:48;;;;;;;6.23;3.60;;;;;;;;;;5108822;28;20019;-64
2023/09/02 03:31:15;;;;;;;3.57;2.60;;;;;;;;;;5109547;28;20596;-64
2023/09/02 03:33:43;;;;;;;4.23;2.67;;;;;;;;;;5105165;28;20385;-65
2023/09/02 03:36:16;;;;;;;4.53;2.67;;;;;;;;;;5110400;28;20028;-64
2023/09/02 03:38:43;;;;;;;5.37;2.53;;;;;;;;;;5108288;28;20490;-64
2023/09/02 03:41:17;;;;;;;3.33;2.13;;;;;;;;;;5099214;28;20496;-64
2023/09/02 03:43:47;;;;;;;9.40;2.87;;;;;;;;;;5109683;28;20027;-64
2023/09/02 03:46:14;;;;;;;16.57;3.07;;;;;;;;;;5108675;28;20019;-65
2023/09/02 03:48:40;;;;;;;3.80;2.53;;;;;;;;;;5108750;28;20033;-64
2023/09/02 03:51:17;;;;;;;3.50;2.40;;;;;;;;;;5104316;28;20492;-65
2023/09/02 03:53:44;;;;;;;7.70;3.53;;;;;;;;;;5091730;28;20469;-64
2023/09/02 03:56:11;;;;;;;4.33;2.73;;;;;;;;;;5094453;28;20024;-64
2023/09/02 03:58:37;;;;;;;2.60;1.90;;;;;;;;;;5093155;28;20032;-64
2023/09/02 04:01:04;;;;;;;4.97;3.13;;;;;;;;;;5093822;28;20485;-64
2023/09/02 04:03:35;;;;;;;3.70;2.50;;;;;;;;;;5093209;28;20046;-64
2023/09/02 04:06:02;;;;;;;4.23;2.60;;;;;;;;;;5088452;28;20039;-64
2023/09/02 04:08:33;;;;;;;4.87;2.90;;;;;;;;;;5087779;28;20020;-64
2023/09/02 04:11:01;;;;;;;3.10;2.23;;;;;;;;;;5088998;28;20028;-64
2023/09/02 04:13:28;;;;;;;19.53;3.93;;;;;;;;;;5091010;28;20063;-64
2023/09/02 04:15:57;;;;;;;6.30;3.03;;;;;;;;;;5091648;28;20028;-64
2023/09/02 04:18:27;;;;;;;3.20;2.00;;;;;;;;;;5092944;28;20095;-64
2023/09/02 04:20:54;;;;;;;5.17;2.53;;;;;;;;;;5092800;28;20089;-64
2023/09/02 04:23:22;;;;;;;4.80;2.37;;;;;;;;;;5098783;28;20085;-64
2023/09/02 04:25:52;;;;;;;20.00;2.13;;;;;;;;;;5113200;28;20035;-64
2023/09/02 04:28:19;;;;;;;4.07;2.50;;;;;;;;;;5097352;28;20089;-64
2023/09/02 04:30:46;;;;;;;4.30;2.63;;;;;;;;;;5087566;28;20052;-64
2023/09/02 04:33:13;;;;;;;4.23;2.53;;;;;;;;;;5087388;28;20021;-64
2023/09/02 04:35:41;;;;;;;11.80;3.27;;;;;;;;;;5087641;28;20480;-64
2023/09/02 04:38:08;;;;;;;3.73;2.70;;;;;;;;;;5099252;28;20150;-64
2023/09/02 04:40:41;;;;;;;3.97;2.83;;;;;;;;;;5113265;28;20015;-64
2023/09/02 04:43:08;;;;;;;3.57;2.23;;;;;;;;;;5112939;28;20088;-64
2023/09/02 04:45:35;;;;;;;3.13;2.27;;;;;;;;;;5112913;28;20026;-64
2023/09/02 04:48:03;;;;;;;4.40;2.77;;;;;;;;;;5105100;28;20063;-65
2023/09/02 04:50:30;;;;;;;4.50;3.47;;;;;;;;;;5086362;28;20047;-64
2023/09/02 04:52:59;;;;;;;6.17;4.07;;;;;;;;;;5087361;28;20074;-64
2023/09/02 04:55:27;;;;;;;4.27;3.13;;;;;;;;;;5087591;28;20028;-64
2023/09/02 04:57:54;;;;;;;4.50;2.80;;;;;;;;;;5092104;28;20098;-64
2023/09/02 05:00:23;;;;;;;4.20;3.13;;;;;;;;;;5109139;28;20065;-64
2023/09/02 05:02:50;;;;;;;5.43;2.67;;;;;;;;;;5092622;28;20462;-64
2023/09/02 05:05:20;;;;;;;5.87;2.53;;;;;;;;;;5092047;28;20040;-64
2023/09/02 05:07:47;;;;;;;10.07;2.57;;;;;;;;;;5096178;28;20027;-64
2023/09/02 05:10:14;;;;;;;6.80;2.90;;;;;;;;;;5112270;28;20080;-63
2023/09/02 05:12:41;;;;;;;4.20;2.80;;;;;;;;;;5109557;28;20042;-64
2023/09/02 05:15:08;;;;;;;4.80;2.97;;;;;;;;;;5111924;28;20031;-64
2023/09/02 05:17:34;;;;;;;3.80;2.27;;;;;;;;;;5110149;28;20027;-64
2023/09/02 05:20:03;;;;;;;3.33;2.20;;;;;;;;;;5096241;28;20153;-64
2023/09/02 05:22:29;;;;;;;3.43;2.30;;;;;;;;;;5114455;28;20525;-65
2023/09/02 05:24:56;;;;;;;5.40;3.73;;;;;;;;;;5116655;28;20031;-64
2023/09/02 05:27:23;;;;;;;5.87;4.00;;;;;;;;;;5116870;28;20023;-63
2023/09/02 05:29:50;;;;;;;4.27;2.67;;;;;;;;;;5096212;28;20031;-65
2023/09/02 05:32:17;;;;;;;3.70;2.73;;;;;;;;;;5106668;28;20047;-64
2023/09/02 05:34:44;;;;;;;3.87;2.63;;;;;;;;;;5112188;28;20104;-64
2023/09/02 05:37:11;;;;;;;4.57;2.67;;;;;;;;;;5110815;28;20477;-64
2023/09/02 05:39:38;;;;;;;2.53;1.87;;;;;;;;;;5111137;28;20084;-64
2023/09/02 05:42:04;;;;;;;6.17;3.07;;;;;;;;;;5102463;28;20039;-64
2023/09/02 05:44:34;;;;;;;4.47;3.07;;;;;;;;;;5094359;28;20106;-64
2023/09/02 05:47:01;;;;;;;7.27;3.13;;;;;;;;;;5095722;28;20102;-64
2023/09/02 05:49:27;;;;;;;5.40;3.00;;;;;;;;;;5095641;28;20058;-64
2023/09/02 05:51:54;;;;;;;6.57;3.37;;;;;;;;;;5100517;28;20119;-64
2023/09/02 05:54:20;;;;;;;4.07;2.33;;;;;;;;;;5115512;28;20098;-64
2023/09/02 05:56:47;;;;;;;3.90;2.47;;;;;;;;;;5111890;28;20427;-64
2023/09/02 05:59:14;;;;;;;3.17;2.30;;;;;;;;;;5110925;28;20359;-64
2023/09/02 06:01:43;;;;;;;2.10;1.60;;;;;;;;;;5105769;28;20024;-64
2023/09/02 06:04:09;;;;;;;5.20;2.30;;;;;;;;;;5090386;28;20351;-64
2023/09/02 06:06:36;;;;;;;3.27;2.23;;;;;;;;;;5093546;28;20035;-64
2023/09/02 06:09:02;;;;;;;10.43;2.83;;;;;;;;;;5094996;28;20101;-64
2023/09/02 06:11:31;;;;;;;3.93;2.03;;;;;;;;;;5097907;28;20040;-64
2023/09/02 06:13:57;;;;;;;4.43;2.50;;;;;;;;;;5115572;27;20113;-64
2023/09/02 06:16:24;;;;;;;2.27;1.77;;;;;;;;;;5115642;28;20047;-64
2023/09/02 06:18:51;;;;;;;4.27;3.00;;;;;;;;;;5111847;28;20087;-64
2023/09/02 06:21:17;;;;;;;4.57;2.63;;;;;;;;;;5109366;28;20020;-65
2023/09/02 06:23:45;;;;;;;3.23;2.20;;;;;;;;;;5095362;28;20378;-64
2023/09/02 06:26:12;;;;;;;4.10;2.70;;;;;;;;;;5110306;28;20497;-65
2023/09/02 06:28:39;;;;;;;12.33;2.10;;;;;;;;;;5113395;28;20077;-64
2023/09/02 06:31:07;;;;;;;2.83;2.10;;;;;;;;;;5115150;28;20383;-64
2023/09/02 06:33:33;;;;;;;3.50;2.23;;;;;;;;;;5102728;28;20028;-64
2023/09/02 06:36:00;;;;;;;3.73;2.50;;;;;;;;;;5094978;28;20051;-64
2023/09/02 06:38:27;;;;;;;6.77;2.03;;;;;;;;;;5094812;28;20028;-64
2023/09/02 06:40:53;;;;;;;2.90;1.90;;;;;;;;;;5091350;28;20039;-64
2023/09/02 06:43:20;;;;;;;2.83;1.83;;;;;;;;;;5098611;28;20499;-64
2023/09/02 06:45:47;;;;;;;2.00;1.60;;;;;;;;;;5108574;28;20497;-65
2023/09/02 06:48:14;;;;;;;4.20;2.10;;;;;;;;;;5109794;28;20090;-64
2023/09/02 06:50:40;;;;;;;3.97;2.57;;;;;;;;;;5112553;28;20035;-64
2023/09/02 06:53:07;;;;;;;3.07;1.97;;;;;;;;;;5107320;28;20032;-64
2023/09/02 06:55:34;;;;;;;2.50;1.63;;;;;;;;;;5094018;28;20489;-64
2023/09/02 06:58:00;;;;;;;1.93;1.50;;;;;;;;;;5099352;28;20024;-64
2023/09/02 07:00:27;;;;;;;4.60;2.33;;;;;;;;;;5103969;28;20030;-64
2023/09/02 07:02:54;;;;;;;2.43;1.80;;;;;;;;;;5111507;28;20050;-64
2023/09/02 07:05:20;;;;;;;3.23;1.87;;;;;;;;;;5109421;28;20041;-64
2023/09/02 07:07:47;;;;;;;2.43;1.57;;;;;;;;;;5095949;28;20049;-63
2023/09/02 07:10:14;;;;;;;2.43;1.43;;;;;;;;;;5094495;28;20370;-64
2023/09/02 07:12:40;;;;;;;3.90;2.40;;;;;;;;;;5091213;28;20028;-64
2023/09/02 07:15:07;;;;;;;2.20;1.40;;;;;;;;;;5094200;28;20107;-64
2023/09/02 07:17:34;;;;;;;3.00;1.67;;;;;;;;;;5094215;28;20031;-64
2023/09/02 07:20:00;;;;;;;1.67;1.10;;;;;;;;;;5104243;28;20118;-64
2023/09/02 07:22:27;;;;;;;4.17;1.73;;;;;;;;;;5114092;28;20434;-64
2023/09/02 07:24:54;;;;;;;2.70;1.40;;;;;;;;;;5097173;28;20034;-64
2023/09/02 07:27:20;;;;;;;2.03;1.37;;;;;;;;;;5088625;28;20054;-64
2023/09/02 07:29:48;;;;;;;2.00;1.20;;;;;;;;;;5088742;28;20043;-64
2023/09/02 07:32:15;;;;;;;4.50;1.17;;;;;;;;;;5108136;28;20478;-63
2023/09/02 07:34:41;;;;;;;1.97;1.43;;;;;;;;;;5110472;28;20052;-64
2023/09/02 07:37:08;;;;;;;8.97;1.57;;;;;;;;;;5113980;28;20062;-63
2023/09/02 07:39:35;;;;;;;3.07;1.50;;;;;;;;;;5113911;28;20420;-64
2023/09/02 07:42:02;;;;;;;1.23;1.10;;;;;;;;;;5096494;28;20032;-64
2023/09/02 07:44:29;;;;;;;0.90;0.87;;;;;;;;;;5093017;28;20505;-63
2023/09/02 07:46:56;;;;;;;2.23;1.30;;;;;;;;;;5102539;28;20032;-64
2023/09/02 07:49:22;;;;;;;1.80;1.43;;;;;;;;;;5108951;28;20031;-64
2023/09/02 07:51:49;;;;;;;1.20;0.73;;;;;;;;;;5108525;28;20067;-63
2023/09/02 07:54:16;;;;;;;11.33;2.07;;;;;;;;;;5108738;28;20034;-63
2023/09/02 07:56:42;;;;;;;3.57;1.23;;;;;;;;;;5101964;28;20081;-64
2023/09/02 07:59:09;;;;;;;1.20;0.87;;;;;;;;;;5093099;28;20088;-64
2023/09/02 08:01:36;;;;;;;2.47;1.37;;;;;;;;;;5093222;28;20095;-63
2023/09/02 08:04:02;;;;;;;0.67;0.53;;;;;;;;;;5093172;28;20123;-64
2023/09/02 08:06:29;;;;;;;2.37;1.17;;;;;;;;;;5092433;28;20566;-64
2023/09/02 08:08:55;;;;;;;1.97;1.27;;;;;;;;;;5111309;28;20031;-64
2023/09/02 08:11:22;;;;;;;2.20;0.90;;;;;;;;;;5108385;28;20120;-63
2023/09/02 08:13:49;;;;;;;2.00;1.07;;;;;;;;;;5108137;28;20482;-63
2023/09/02 08:16:15;;;;;;;1.87;0.97;;;;;;;;;;5107947;28;20023;-64
2023/09/02 08:18:42;;;;;;;1.37;0.83;;;;;;;;;;5090009;28;20028;-63
2023/09/02 08:21:09;;;;;;;2.97;1.20;;;;;;;;;;5092916;28;20024;-63
2023/09/02 08:23:38;;;;;;;3.77;0.90;;;;;;;;;;5092974;28;20016;-63
2023/09/02 08:26:14;;;;;;;2.03;1.10;;;;;;;;;;5091567;28;20576;-63
2023/09/02 08:28:42;;;;;;;1.33;0.97;;;;;;;;;;5111133;28;20419;-63
2023/09/02 08:31:11;;;;;;;0.70;0.40;;;;;;;;;;5110353;28;20036;-64
2023/09/02 08:33:38;;;;;;;1.87;1.20;;;;;;;;;;5108071;28;20489;-64
2023/09/02 08:36:05;;;;;;;2.27;1.37;;;;;;;;;;5108141;28;20030;-64
2023/09/02 08:38:34;;;;;;;2.00;1.30;;;;;;;;;;5090233;28;20012;-63
2023/09/02 08:41:02;;;;;;;1.67;1.00;;;;;;;;;;5088148;28;20074;-63
2023/09/02 08:43:30;;;;;;;2.00;1.27;;;;;;;;;;5092211;28;20522;-63
2023/09/02 08:46:00;;;;;;;1.43;1.10;;;;;;;;;;5092469;28;20025;-63
2023/09/02 08:48:27;;;;;;;2.37;1.33;;;;;;;;;;5107447;28;20015;-64
2023/09/02 08:50:54;;;;;;;1.83;1.33;;;;;;;;;;5112750;28;20024;-64
2023/09/02 08:53:21;;;;;;;1.63;1.07;;;;;;;;;;5110490;28;20034;-64
2023/09/02 08:55:48;;;;;;;2.03;1.50;;;;;;;;;;5107693;28;20071;-63
2023/09/02 08:58:15;;;;;;;3.80;1.30;;;;;;;;;;5092331;28;20419;-64
2023/09/02 09:00:42;;;;;;;1.10;0.80;;;;;;;;;;5087453;28;20031;-63
2023/09/02 09:03:13;;;;;;;1.20;0.90;;;;;;;;;;5088982;28;20035;-63
2023/09/02 09:05:43;;;;;;;0.73;0.67;;;;;;;;;;5092192;28;20043;-64
2023/09/02 09:08:10;;;;;;;6.73;2.00;;;;;;;;;;5105794;28;20036;-63
2023/09/02 09:10:37;;;;;;;2.23;1.27;;;;;;;;;;5106791;28;20024;-63
2023/09/02 09:13:09;;;;;;;1.37;1.00;;;;;;;;;;5091882;28;20459;-64
2023/09/02 09:15:36;;;;;;;4.03;1.83;;;;;;;;;;5090958;28;20452;-64
2023/09/02 09:18:06;;;;;;;2.33;1.30;;;;;;;;;;5087265;28;20031;-63
2023/09/02 09:20:34;;;;;;;1.93;1.37;;;;;;;;;;5090476;28;20026;-64
2023/09/02 09:23:00;;;;;;;2.10;1.47;;;;;;;;;;5107331;28;20019;-64
2023/09/02 09:25:27;;;;;;;1.47;1.20;;;;;;;;;;5109240;28;20020;-63
2023/09/02 09:28:06;;;;;;;6.47;1.60;;;;;;;;;;5112439;28;20035;-64
2023/09/02 09:30:33;;;;;;;1.77;1.23;;;;;;;;;;5108590;28;20479;-64
2023/09/02 09:33:01;;;;;;;2.30;1.27;;;;;;;;;;5092054;28;20022;-64
2023/09/02 09:35:28;;;;;;;2.87;1.23;;;;;;;;;;5092045;28;20016;-64
2023/09/02 09:37:55;;;;;;;1.03;0.80;;;;;;;;;;5088773;28;20055;-64
2023/09/02 09:40:31;;;;;;;1.47;1.10;;;;;;;;;;5086883;28;20028;-64
2023/09/02 09:42:58;;;;;;;1.67;1.23;;;;;;;;;;5066648;28;20029;-63
2023/09/02 09:45:25;;;;;;;3.33;1.53;;;;;;;;;;5065440;28;20406;-64
2023/09/02 09:47:52;;;;;;;2.83;1.30;;;;;;;;;;5069417;28;20044;-63
2023/09/02 09:50:19;;;;;;;2.63;1.13;;;;;;;;;;5071681;28;20024;-64
2023/09/02 09:53:01;;;;;;;2.20;0.87;;;;;;;;;;5107698;28;20119;-63
2023/09/02 09:55:29;;;;;;;5.30;1.50;;;;;;;;;;5112237;28;20063;-64
2023/09/02 09:57:57;;;;;;;1.77;1.30;;;;;;;;;;5112332;28;20084;-63
2023/09/02 10:00:24;;;;;;;1.90;1.40;;;;;;;;;;5112455;28;20058;-64
2023/09/02 10:02:52;;;;;;;5.00;1.70;;;;;;;;;;5091817;28;20547;-64
2023/09/02 10:05:28;;;;;;;5.97;1.77;;;;;;;;;;5090117;28;20028;-65
2023/09/02 10:07:59;;;;;;;8.53;1.33;;;;;;;;;;5090190;28;20028;-64
2023/09/02 10:10:33;;;;;;;2.93;1.97;;;;;;;;;;5093912;28;20103;-63
2023/09/02 10:13:01;;;;;;;1.50;1.13;;;;;;;;;;5098533;28;20373;-63
2023/09/02 10:15:28;;;;;;;2.33;1.60;;;;;;;;;;5115235;28;20020;-63
2023/09/02 10:17:56;;;;;;;1.50;1.20;;;;;;;;;;5115664;28;20019;-63
2023/09/02 10:20:26;;;;;;;1.87;1.27;;;;;;;;;;5115716;28;20065;-63
2023/09/02 10:22:53;;;;;;;1.57;1.20;;;;;;;;;;5111144;28;20030;-63
2023/09/02 10:25:27;;;;;;;1.53;1.30;;;;;;;;;;5103271;28;20039;-63
2023/09/02 10:28:07;;;;;;;2.33;1.73;;;;;;;;;;5089872;28;20027;-63
2023/09/02 10:30:43;;;;;;;2.10;1.33;;;;;;;;;;5089908;28;20378;-64
2023/09/02 10:33:12;;;;;;;2.03;1.43;;;;;;;;;;5094743;28;20021;-63
2023/09/02 10:35:42;;;;;;;2.67;2.07;;;;;;;;;;5093546;28;20024;-63
2023/09/02 10:38:10;;;;;;;2.33;1.47;;;;;;;;;;5105518;28;20452;-64
2023/09/02 10:40:40;;;;;;;3.70;2.40;;;;;;;;;;5114978;28;20032;-64
2023/09/02 10:43:09;;;;;;;2.10;1.50;;;;;;;;;;5114843;28;20024;-63
2023/09/02 10:45:36;;;;;;;3.47;2.33;;;;;;;;;;5109895;28;20024;-64
2023/09/02 10:48:03;;;;;;;6.33;2.07;;;;;;;;;;5109768;28;20352;-63
2023/09/02 10:50:30;;;;;;;3.30;2.10;;;;;;;;;;5093456;28;20107;-65
2023/09/02 10:52:56;;;;;;;2.10;1.47;;;;;;;;;;5089609;28;20047;-64
2023/09/02 10:55:23;;;;;;;2.20;1.63;;;;;;;;;;5094326;28;20505;-63
2023/09/02 10:57:57;;;;;;;2.07;1.37;;;;;;;;;;5094528;28;20039;-63
2023/09/02 11:00:25;;;;;;;5.23;1.83;;;;;;;;;;5094381;28;20024;-64
2023/09/02 11:02:53;;;;;;;2.07;1.60;;;;;;;;;;5112055;28;20080;-63
2023/09/02 23:04:50;;;;;;;2.80;1.55;;;;;;;;;;5095168;28;20054;-65
2023/09/02 23:07:17;;;;;;;5.40;1.10;;;;;;;;;;5113442;28;20035;-64
2023/09/02 23:09:43;;;;;;;9.35;1.02;;;;;;;;;;5100312;28;20127;-64
2023/09/02 23:12:10;;;;;;;1.08;0.90;;;;;;;;;;5094196;28;20035;-64
2023/09/02 23:14:37;;;;;;;1.83;1.30;;;;;;;;;;5094119;28;20017;-64
2023/09/02 23:17:04;;;;;;;1.92;1.20;;;;;;;;;;5107258;28;20107;-64
2023/09/02 23:19:30;;;;;;;0.52;0.50;;;;;;;;;;5109447;28;20015;-64
2023/09/02 23:21:57;;;;;;;1.38;1.05;;;;;;;;;;5108833;28;20040;-64
2023/09/02 23:24:23;;;;;;;3.40;1.23;;;;;;;;;;5106749;28;20437;-64
2023/09/02 23:26:53;;;;;;;3.40;1.38;;;;;;;;;;5091036;28;20031;-64
2023/09/02 23:29:19;;;;;;;1.38;1.13;;;;;;;;;;5094089;28;20115;-64
2023/09/02 23:31:46;;;;;;;1.48;0.98;;;;;;;;;;5093850;28;20110;-64
2023/09/02 23:34:14;;;;;;;1.23;0.85;;;;;;;;;;5094005;28;20096;-63
2023/09/02 23:36:41;;;;;;;15.27;2.47;;;;;;;;;;5114360;28;20077;-64
2023/09/02 23:39:07;;;;;;;1.60;1.10;;;;;;;;;;5111148;28;20020;-64
2023/09/02 23:41:36;;;;;;;1.30;0.93;;;;;;;;;;5109089;28;20024;-64
2023/09/02 23:44:03;;;;;;;2.40;1.50;;;;;;;;;;5108941;28;20028;-64
2023/09/02 23:46:29;;;;;;;2.22;1.20;;;;;;;;;;5088725;28;20022;-64
2023/09/02 23:48:56;;;;;;;1.95;1.30;;;;;;;;;;5090601;28;20370;-64
2023/09/02 23:51:22;;;;;;;1.63;0.88;;;;;;;;;;5093386;28;20126;-64
2023/09/02 23:53:49;;;;;;;5.45;1.17;;;;;;;;;;5093624;28;20023;-64
2023/09/02 23:56:16;;;;;;;2.17;1.55;;;;;;;;;;5109396;28;20019;-64
2023/09/02 23:58:43;;;;;;;1.15;0.90;;;;;;;;;;5113847;28;20398;-64
